createdAt,value
2022-10-05T00:00:02.040Z,9.91
2022-10-05T00:01:01.961Z,9.91
2022-10-05T00:02:02.972Z,9.89
2022-10-05T00:03:02.953Z,9.90
2022-10-05T00:04:02.959Z,9.91
2022-10-05T00:05:02.635Z,9.91
2022-10-05T00:06:02.587Z,9.90
2022-10-05T00:07:02.802Z,9.87
2022-10-05T00:08:02.981Z,9.87
2022-10-05T00:09:02.904Z,9.87
2022-10-05T00:10:02.801Z,9.86
2022-10-05T00:11:03.363Z,9.85
2022-10-05T00:12:02.034Z,9.84
2022-10-05T00:13:02.614Z,9.86
2022-10-05T00:14:02.450Z,9.87
2022-10-05T00:15:02.255Z,9.85
2022-10-05T00:16:02.413Z,9.86
2022-10-05T00:17:02.191Z,9.84
2022-10-05T00:18:02.488Z,9.82
2022-10-05T00:19:02.594Z,9.81
2022-10-05T00:20:02.122Z,9.81
2022-10-05T00:21:02.300Z,9.79
2022-10-05T00:22:01.919Z,9.79
2022-10-05T00:23:02.322Z,9.79
2022-10-05T00:24:02.237Z,9.77
2022-10-05T00:25:01.906Z,9.75
2022-10-05T00:26:02.419Z,9.74
2022-10-05T00:27:02.424Z,9.72
2022-10-05T00:28:02.224Z,9.69
2022-10-05T00:29:02.482Z,9.67
2022-10-05T00:30:02.302Z,9.67
2022-10-05T00:31:02.209Z,9.66
2022-10-05T00:32:02.636Z,9.65
2022-10-05T00:33:01.993Z,9.66
2022-10-05T00:34:02.609Z,9.66
2022-10-05T00:35:02.247Z,9.66
2022-10-05T00:36:02.133Z,9.67
2022-10-05T00:37:03.145Z,9.65
2022-10-05T00:38:03.045Z,9.64
2022-10-05T00:39:02.923Z,9.62
2022-10-05T00:40:02.836Z,9.63
2022-10-05T00:41:02.741Z,9.61
2022-10-05T00:42:02.316Z,9.65
2022-10-05T00:43:02.843Z,9.66
2022-10-05T00:44:02.274Z,9.63
2022-10-05T00:45:02.749Z,9.62
2022-10-05T00:46:02.728Z,9.61
2022-10-05T00:47:02.966Z,9.59
2022-10-05T00:48:02.755Z,9.57
2022-10-05T00:49:02.627Z,9.57
2022-10-05T00:50:02.682Z,9.55
2022-10-05T00:51:02.726Z,9.54
2022-10-05T00:52:02.651Z,9.53
2022-10-05T00:53:02.276Z,9.53
2022-10-05T00:54:02.217Z,9.51
2022-10-05T00:55:02.811Z,9.50
2022-10-05T00:56:02.571Z,9.49
2022-10-05T00:57:02.842Z,9.48
2022-10-05T00:58:02.523Z,9.48
2022-10-05T00:59:02.355Z,9.46
2022-10-05T01:00:02.216Z,9.44
2022-10-05T01:01:02.860Z,9.44
2022-10-05T01:02:02.550Z,9.43
2022-10-05T01:03:02.434Z,9.43
2022-10-05T01:04:02.307Z,9.44
2022-10-05T01:05:02.494Z,9.46
2022-10-05T01:06:02.346Z,9.47
2022-10-05T01:07:03.294Z,9.47
2022-10-05T01:08:03.121Z,9.49
2022-10-05T01:09:02.975Z,9.47
2022-10-05T01:10:02.788Z,9.48
2022-10-05T01:11:03.282Z,9.47
2022-10-05T01:12:02.626Z,9.45
2022-10-05T01:13:02.451Z,9.44
2022-10-05T01:14:02.978Z,9.43
2022-10-05T01:15:02.550Z,9.42
2022-10-05T01:16:02.937Z,9.39
2022-10-05T01:17:02.381Z,9.38
2022-10-05T01:18:02.324Z,9.34
2022-10-05T01:19:02.126Z,9.33
2022-10-05T01:20:02.600Z,9.32
2022-10-05T01:21:02.225Z,9.30
2022-10-05T01:22:02.718Z,9.26
2022-10-05T01:23:02.538Z,9.25
2022-10-05T01:24:02.626Z,9.22
2022-10-05T01:25:02.520Z,9.21
2022-10-05T01:26:02.620Z,9.20
2022-10-05T01:27:03.161Z,9.19
2022-10-05T01:28:03.042Z,9.17
2022-10-05T01:29:02.999Z,9.16
2022-10-05T01:30:02.834Z,9.15
2022-10-05T01:31:03.471Z,9.13
2022-10-05T01:32:02.853Z,9.15
2022-10-05T01:33:02.602Z,9.13
2022-10-05T01:34:05.782Z,9.10
2022-10-05T01:35:02.774Z,9.07
2022-10-05T01:36:02.590Z,9.06
2022-10-05T01:37:02.174Z,9.05
2022-10-05T01:38:02.599Z,9.02
2022-10-05T01:39:02.060Z,9.00
2022-10-05T01:40:02.460Z,8.99
2022-10-05T01:41:02.288Z,8.97
2022-10-05T01:42:02.784Z,8.96
2022-10-05T01:43:02.715Z,8.95
2022-10-05T01:44:02.450Z,8.93
2022-10-05T01:45:02.960Z,8.90
2022-10-05T01:46:02.570Z,8.88
2022-10-05T01:47:03.139Z,8.86
2022-10-05T01:48:02.966Z,8.86
2022-10-05T01:49:02.933Z,8.85
2022-10-05T01:50:03.055Z,8.84
2022-10-05T01:51:03.125Z,8.82
2022-10-05T01:52:02.606Z,8.80
2022-10-05T01:53:02.443Z,8.80
2022-10-05T01:54:02.279Z,8.76
2022-10-05T01:55:02.826Z,8.77
2022-10-05T01:56:02.470Z,8.77
2022-10-05T01:57:02.785Z,8.75
2022-10-05T01:58:02.651Z,8.74
2022-10-05T01:59:03.181Z,8.71
2022-10-05T02:00:02.670Z,8.72
2022-10-05T02:01:02.574Z,8.73
2022-10-05T02:02:02.191Z,8.75
2022-10-05T02:03:01.675Z,8.75
2022-10-05T02:04:02.248Z,8.74
2022-10-05T02:05:03.006Z,8.73
2022-10-05T02:06:02.239Z,8.72
2022-10-05T02:07:02.656Z,8.74
2022-10-05T02:08:02.187Z,8.75
2022-10-05T02:09:02.336Z,8.79
2022-10-05T02:10:02.182Z,8.79
2022-10-05T02:11:02.844Z,8.78
2022-10-05T02:12:02.267Z,8.78
2022-10-05T02:13:02.089Z,8.76
2022-10-05T02:14:01.675Z,8.77
2022-10-05T02:15:02.030Z,8.78
2022-10-05T02:16:02.182Z,8.83
2022-10-05T02:17:02.563Z,8.81
2022-10-05T02:18:02.619Z,8.81
2022-10-05T02:19:02.451Z,8.80
2022-10-05T02:20:02.290Z,8.83
2022-10-05T02:21:02.734Z,8.83
2022-10-05T02:22:02.947Z,8.83
2022-10-05T02:23:02.787Z,8.86
2022-10-05T02:24:02.778Z,8.88
2022-10-05T02:25:03.051Z,8.91
2022-10-05T02:26:02.667Z,8.94
2022-10-05T02:27:02.216Z,8.97
2022-10-05T02:28:01.934Z,9.00
2022-10-05T02:29:02.109Z,9.06
2022-10-05T02:30:01.794Z,9.09
2022-10-05T02:31:02.232Z,9.09
2022-10-05T02:32:02.435Z,9.12
2022-10-05T02:33:02.110Z,9.12
2022-10-05T02:34:02.319Z,9.18
2022-10-05T02:35:02.161Z,9.21
2022-10-05T02:36:02.055Z,9.23
2022-10-05T02:37:02.597Z,9.26
2022-10-05T02:38:02.201Z,9.26
2022-10-05T02:39:02.771Z,9.29
2022-10-05T02:40:02.331Z,9.31
2022-10-05T02:41:02.640Z,9.34
2022-10-05T02:42:01.548Z,9.36
2022-10-05T02:43:01.787Z,9.39
2022-10-05T02:44:01.640Z,9.41
2022-10-05T02:45:01.560Z,9.44
2022-10-05T02:46:02.195Z,9.47
2022-10-05T02:47:02.083Z,9.47
2022-10-05T02:48:02.257Z,9.49
2022-10-05T02:49:02.684Z,9.50
2022-10-05T02:50:02.355Z,9.52
2022-10-05T02:51:02.726Z,9.52
2022-10-05T02:52:02.324Z,9.52
2022-10-05T02:53:02.932Z,9.53
2022-10-05T02:54:02.822Z,9.51
2022-10-05T02:55:02.693Z,9.52
2022-10-05T02:56:02.900Z,9.53
2022-10-05T02:57:02.221Z,9.53
2022-10-05T02:58:02.030Z,9.55
2022-10-05T02:59:02.353Z,9.56
2022-10-05T03:00:01.885Z,9.60
2022-10-05T03:01:01.974Z,9.63
2022-10-05T03:02:02.031Z,9.64
2022-10-05T03:03:01.858Z,9.67
2022-10-05T03:04:02.311Z,9.68
2022-10-05T03:05:02.215Z,9.69
2022-10-05T03:06:02.132Z,9.69
2022-10-05T03:07:02.128Z,9.71
2022-10-05T03:08:02.477Z,9.73
2022-10-05T03:09:02.383Z,9.76
2022-10-05T03:10:02.354Z,9.77
2022-10-05T03:11:02.296Z,9.76
2022-10-05T03:12:02.184Z,9.74
2022-10-05T03:13:02.522Z,9.74
2022-10-05T03:14:02.395Z,9.75
2022-10-05T03:15:02.743Z,9.76
2022-10-05T03:16:02.535Z,9.76
2022-10-05T03:17:02.512Z,9.77
2022-10-05T03:18:03.030Z,9.78
2022-10-05T03:19:02.594Z,9.77
2022-10-05T03:20:02.479Z,9.78
2022-10-05T03:21:02.507Z,9.81
2022-10-05T03:22:02.137Z,9.82
2022-10-05T03:23:02.270Z,9.84
2022-10-05T03:24:02.162Z,9.84
2022-10-05T03:25:02.595Z,9.85
2022-10-05T03:26:02.393Z,9.86
2022-10-05T03:27:02.174Z,9.88
2022-10-05T03:28:02.362Z,9.88
2022-10-05T03:29:02.750Z,9.87
2022-10-05T03:30:02.795Z,9.88
2022-10-05T03:31:02.428Z,9.85
2022-10-05T03:32:02.650Z,9.86
2022-10-05T03:33:02.646Z,9.88
2022-10-05T03:34:02.921Z,9.87
2022-10-05T03:35:02.770Z,9.88
2022-10-05T03:36:02.627Z,9.91
2022-10-05T03:37:02.523Z,9.91
2022-10-05T03:38:02.495Z,9.91
2022-10-05T03:39:02.351Z,9.94
2022-10-05T03:40:02.050Z,9.95
2022-10-05T03:41:02.193Z,9.96
2022-10-05T03:42:03.210Z,9.97
2022-10-05T03:43:02.884Z,9.99
2022-10-05T03:44:02.576Z,10.00
2022-10-05T03:45:03.227Z,10.02
2022-10-05T03:46:02.615Z,10.02
2022-10-05T03:47:02.150Z,10.03
2022-10-05T03:48:02.386Z,10.04
2022-10-05T03:49:02.566Z,10.04
2022-10-05T03:50:02.332Z,10.04
2022-10-05T03:51:02.220Z,10.04
2022-10-05T03:52:02.774Z,10.04
2022-10-05T03:53:02.674Z,10.05
2022-10-05T03:54:02.537Z,10.06
2022-10-05T03:55:02.745Z,10.05
2022-10-05T03:56:03.447Z,10.06
2022-10-05T03:57:02.156Z,10.04
2022-10-05T03:58:01.914Z,10.04
2022-10-05T03:59:02.360Z,10.04
2022-10-05T04:00:01.851Z,10.03
2022-10-05T04:01:02.436Z,10.02
2022-10-05T04:02:02.761Z,10.01
2022-10-05T04:03:02.686Z,10.01
2022-10-05T04:04:02.765Z,10.00
2022-10-05T04:05:02.657Z,9.99
2022-10-05T04:06:02.583Z,9.98
2022-10-05T04:07:02.201Z,9.97
2022-10-05T04:08:02.452Z,9.96
2022-10-05T04:09:02.230Z,9.96
2022-10-05T04:10:02.107Z,9.94
2022-10-05T04:11:01.968Z,9.94
2022-10-05T04:12:02.513Z,9.94
2022-10-05T04:13:02.478Z,9.95
2022-10-05T04:14:02.762Z,9.96
2022-10-05T04:15:02.723Z,9.95
2022-10-05T04:16:02.671Z,9.96
2022-10-05T04:17:02.110Z,9.95
2022-10-05T04:18:01.911Z,9.95
2022-10-05T04:19:01.872Z,9.94
2022-10-05T04:20:02.343Z,9.94
2022-10-05T04:21:02.010Z,9.92
2022-10-05T04:22:02.477Z,9.93
2022-10-05T04:23:02.001Z,9.93
2022-10-05T04:24:01.976Z,9.92
2022-10-05T04:25:02.510Z,9.92
2022-10-05T04:26:02.300Z,9.92
2022-10-05T04:27:02.492Z,9.90
2022-10-05T04:28:02.368Z,9.90
2022-10-05T04:29:02.590Z,9.91
2022-10-05T04:30:02.183Z,9.91
2022-10-05T04:31:02.746Z,9.91
2022-10-05T04:32:02.218Z,9.90
2022-10-05T04:33:02.048Z,9.90
2022-10-05T04:34:01.895Z,9.88
2022-10-05T04:35:01.739Z,9.87
2022-10-05T04:36:01.836Z,9.85
2022-10-05T04:37:02.516Z,9.83
2022-10-05T04:38:02.436Z,9.86
2022-10-05T04:39:02.372Z,9.83
2022-10-05T04:40:02.305Z,9.81
2022-10-05T04:41:02.188Z,9.82
2022-10-05T04:42:02.655Z,9.83
2022-10-05T04:43:02.544Z,9.83
2022-10-05T04:44:02.464Z,9.83
2022-10-05T04:45:02.371Z,9.84
2022-10-05T04:46:02.122Z,9.84
2022-10-05T04:47:02.603Z,9.84
2022-10-05T04:48:02.559Z,9.87
2022-10-05T04:49:02.270Z,9.87
2022-10-05T04:50:02.408Z,9.88
2022-10-05T04:51:02.367Z,9.87
2022-10-05T04:52:01.984Z,9.88
2022-10-05T04:53:01.946Z,9.86
2022-10-05T04:54:01.797Z,9.86
2022-10-05T04:55:02.257Z,9.84
2022-10-05T04:56:01.768Z,9.83
2022-10-05T04:57:02.555Z,9.82
2022-10-05T04:58:02.249Z,9.81
2022-10-05T04:59:02.080Z,9.81
2022-10-05T05:00:02.275Z,9.81
2022-10-05T05:01:02.418Z,9.82
2022-10-05T05:02:02.870Z,9.80
2022-10-05T05:03:02.806Z,9.78
2022-10-05T05:04:02.650Z,9.76
2022-10-05T05:05:02.492Z,9.77
2022-10-05T05:06:16.996Z,9.78
2022-10-05T05:07:02.574Z,9.76
2022-10-05T05:08:02.255Z,9.75
2022-10-05T05:09:02.190Z,9.77
2022-10-05T05:10:02.370Z,9.77
2022-10-05T05:11:02.288Z,9.76
2022-10-05T05:12:01.560Z,9.75
2022-10-05T05:13:02.118Z,9.74
2022-10-05T05:14:01.694Z,9.76
2022-10-05T05:15:01.657Z,9.79
2022-10-05T05:16:01.976Z,9.79
2022-10-05T05:17:02.517Z,9.80
2022-10-05T05:18:02.007Z,9.80
2022-10-05T05:19:02.168Z,9.81
2022-10-05T05:20:01.998Z,9.83
2022-10-05T05:21:02.551Z,9.85
2022-10-05T05:22:02.454Z,9.84
2022-10-05T05:23:02.834Z,9.86
2022-10-05T05:24:02.290Z,9.86
2022-10-05T05:25:02.706Z,9.87
2022-10-05T05:26:02.671Z,9.86
2022-10-05T05:27:02.007Z,9.86
2022-10-05T05:28:02.044Z,9.86
2022-10-05T05:29:02.086Z,9.88
2022-10-05T05:30:01.674Z,9.89
2022-10-05T05:31:02.344Z,9.89
2022-10-05T05:32:02.170Z,9.90
2022-10-05T05:33:01.997Z,9.89
2022-10-05T05:34:02.008Z,9.91
2022-10-05T05:35:02.517Z,9.89
2022-10-05T05:36:02.647Z,9.89
2022-10-05T05:37:02.366Z,9.88
2022-10-05T05:38:02.910Z,9.86
2022-10-05T05:39:02.473Z,9.87
2022-10-05T05:40:02.407Z,9.88
2022-10-05T05:41:02.974Z,9.89
2022-10-05T05:42:01.637Z,9.92
2022-10-05T05:43:01.657Z,9.92
2022-10-05T05:44:02.205Z,9.90
2022-10-05T05:45:02.198Z,9.92
2022-10-05T05:46:02.196Z,9.95
2022-10-05T05:47:04.491Z,9.96
2022-10-05T05:48:02.362Z,9.97
2022-10-05T05:49:01.882Z,9.99
2022-10-05T05:50:07.097Z,10.00
2022-10-05T05:51:02.139Z,10.01
2022-10-05T05:52:02.085Z,10.02
2022-10-05T05:53:02.303Z,10.03
2022-10-05T05:54:02.365Z,10.03
2022-10-05T05:55:02.361Z,10.02
2022-10-05T05:56:02.089Z,10.03
2022-10-05T05:57:01.919Z,10.02
2022-10-05T05:58:02.023Z,10.03
2022-10-05T05:59:01.936Z,10.03
2022-10-05T06:00:01.763Z,10.04
2022-10-05T06:01:01.847Z,10.05
2022-10-05T06:02:02.003Z,10.05
2022-10-05T06:03:01.909Z,10.06
2022-10-05T06:04:02.079Z,10.05
2022-10-05T06:05:02.076Z,10.09
2022-10-05T06:06:01.873Z,10.11
2022-10-05T06:07:02.164Z,10.13
2022-10-05T06:08:02.374Z,10.16
2022-10-05T06:09:02.346Z,10.15
2022-10-05T06:10:02.369Z,10.18
2022-10-05T06:11:02.398Z,10.20
2022-10-05T06:12:01.502Z,10.24
2022-10-05T06:13:01.952Z,10.24
2022-10-05T06:14:01.511Z,10.28
2022-10-05T06:15:01.698Z,10.28
2022-10-05T06:16:01.759Z,10.31
2022-10-05T06:17:02.420Z,10.33
2022-10-05T06:18:02.568Z,10.37
2022-10-05T06:19:02.361Z,10.38
2022-10-05T06:20:05.235Z,10.41
2022-10-05T06:21:02.400Z,10.41
2022-10-05T06:22:01.866Z,10.44
2022-10-05T06:23:01.802Z,10.46
2022-10-05T06:24:02.072Z,10.50
2022-10-05T06:25:01.943Z,10.52
2022-10-05T06:26:01.891Z,10.54
2022-10-05T06:27:02.853Z,10.59
2022-10-05T06:28:02.981Z,10.63
2022-10-05T06:29:02.831Z,10.66
2022-10-05T06:30:02.844Z,10.70
2022-10-05T06:31:02.881Z,10.73
2022-10-05T06:32:02.756Z,10.76
2022-10-05T06:33:02.712Z,10.81
2022-10-05T06:34:02.818Z,10.85
2022-10-05T06:35:02.488Z,10.87
2022-10-05T06:36:02.388Z,10.90
2022-10-05T06:37:02.336Z,10.93
2022-10-05T06:38:01.986Z,10.94
2022-10-05T06:39:02.603Z,10.95
2022-10-05T06:40:02.340Z,10.97
2022-10-05T06:41:02.252Z,10.99
2022-10-05T06:42:02.021Z,11.01
2022-10-05T06:43:01.782Z,11.03
2022-10-05T06:44:01.873Z,11.05
2022-10-05T06:45:01.876Z,11.07
2022-10-05T06:46:01.891Z,11.09
2022-10-05T06:47:02.207Z,11.12
2022-10-05T06:48:05.318Z,11.12
2022-10-05T06:49:02.156Z,11.14
2022-10-05T06:50:02.125Z,11.17
2022-10-05T06:51:02.068Z,11.19
2022-10-05T06:52:02.349Z,11.24
2022-10-05T06:53:02.374Z,11.27
2022-10-05T06:54:02.456Z,11.30
2022-10-05T06:55:02.232Z,11.33
2022-10-05T06:56:01.973Z,11.33
2022-10-05T06:57:02.627Z,11.35
2022-10-05T06:58:02.601Z,11.36
2022-10-05T06:59:02.666Z,11.39
2022-10-05T07:00:02.584Z,11.40
2022-10-05T07:01:02.697Z,11.43
2022-10-05T07:02:02.161Z,11.48
2022-10-05T07:03:01.680Z,11.51
2022-10-05T07:04:01.761Z,11.55
2022-10-05T07:05:01.688Z,11.59
2022-10-05T07:06:01.956Z,11.62
2022-10-05T07:07:02.703Z,11.64
2022-10-05T07:08:02.631Z,11.67
2022-10-05T07:09:02.556Z,11.70
2022-10-05T07:10:02.375Z,11.73
2022-10-05T07:11:02.372Z,11.76
2022-10-05T07:12:05.161Z,11.81
2022-10-05T07:13:02.164Z,11.85
2022-10-05T07:14:02.079Z,11.86
2022-10-05T07:15:02.186Z,11.88
2022-10-05T07:16:02.293Z,11.91
2022-10-05T07:17:02.540Z,11.92
2022-10-05T07:18:01.945Z,11.95
2022-10-05T07:19:01.899Z,11.99
2022-10-05T07:20:01.924Z,12.02
2022-10-05T07:21:01.972Z,12.05
2022-10-05T07:22:02.727Z,12.08
2022-10-05T07:23:02.557Z,12.11
2022-10-05T07:24:02.160Z,12.11
2022-10-05T07:25:02.222Z,12.14
2022-10-05T07:26:02.440Z,12.17
2022-10-05T07:27:02.192Z,12.19
2022-10-05T07:28:02.136Z,12.23
2022-10-05T07:29:02.053Z,12.26
2022-10-05T07:30:02.096Z,12.29
2022-10-05T07:31:02.043Z,12.33
2022-10-05T07:32:02.836Z,12.36
2022-10-05T07:33:02.634Z,12.37
2022-10-05T07:34:02.598Z,12.39
2022-10-05T07:35:02.674Z,12.42
2022-10-05T07:36:02.719Z,12.44
2022-10-05T07:37:02.559Z,12.47
2022-10-05T07:38:02.193Z,12.49
2022-10-05T07:39:02.153Z,12.51
2022-10-05T07:40:02.197Z,12.54
2022-10-05T07:41:02.375Z,12.57
2022-10-05T07:42:03.131Z,12.59
2022-10-05T07:43:02.909Z,12.61
2022-10-05T07:44:03.796Z,12.62
2022-10-05T07:45:02.864Z,12.64
2022-10-05T07:46:03.009Z,12.68
2022-10-05T07:47:02.776Z,12.71
2022-10-05T07:48:02.574Z,12.75
2022-10-05T07:49:02.625Z,12.77
2022-10-05T07:50:02.629Z,12.81
2022-10-05T07:51:02.515Z,12.84
2022-10-05T07:52:03.095Z,12.88
2022-10-05T07:53:02.560Z,12.92
2022-10-05T07:54:03.073Z,12.96
2022-10-05T07:55:02.936Z,12.99
2022-10-05T07:56:03.039Z,13.02
2022-10-05T07:57:01.912Z,13.05
2022-10-05T07:58:01.951Z,13.08
2022-10-05T07:59:01.903Z,13.12
2022-10-05T08:00:02.364Z,13.15
2022-10-05T08:01:02.314Z,13.19
2022-10-05T08:02:02.429Z,13.23
2022-10-05T08:03:02.517Z,13.25
2022-10-05T08:04:02.573Z,13.30
2022-10-05T08:05:02.649Z,13.35
2022-10-05T08:06:02.748Z,13.37
2022-10-05T08:07:02.823Z,13.42
2022-10-05T08:08:02.985Z,13.46
2022-10-05T08:09:02.813Z,13.49
2022-10-05T08:10:03.428Z,13.54
2022-10-05T08:11:03.178Z,13.57
2022-10-05T08:12:02.391Z,13.62
2022-10-05T08:13:02.631Z,13.66
2022-10-05T08:14:02.651Z,13.71
2022-10-05T08:15:02.851Z,13.74
2022-10-05T08:16:02.847Z,13.79
2022-10-05T08:17:03.025Z,13.82
2022-10-05T08:18:03.117Z,13.83
2022-10-05T08:19:03.035Z,13.86
2022-10-05T08:20:03.496Z,13.89
2022-10-05T08:21:03.507Z,13.90
2022-10-05T08:22:02.359Z,13.91
2022-10-05T08:23:02.461Z,13.90
2022-10-05T08:24:02.623Z,13.91
2022-10-05T08:25:02.504Z,13.92
2022-10-05T08:26:02.559Z,13.94
2022-10-05T08:27:02.867Z,13.98
2022-10-05T08:28:03.091Z,14.02
2022-10-05T08:29:03.197Z,14.05
2022-10-05T08:30:03.099Z,14.09
2022-10-05T08:31:03.258Z,14.12
2022-10-05T08:32:02.459Z,14.13
2022-10-05T08:33:02.495Z,14.16
2022-10-05T08:34:02.602Z,14.16
2022-10-05T08:35:02.616Z,14.19
2022-10-05T08:36:02.800Z,14.20
2022-10-05T08:37:02.757Z,14.22
2022-10-05T08:38:02.665Z,14.24
2022-10-05T08:39:02.743Z,14.29
2022-10-05T08:40:03.350Z,14.32
2022-10-05T08:41:03.292Z,14.35
2022-10-05T08:42:03.025Z,14.38
2022-10-05T08:43:03.115Z,14.41
2022-10-05T08:44:03.372Z,14.44
2022-10-05T08:45:03.331Z,14.48
2022-10-05T08:46:03.393Z,14.52
2022-10-05T08:47:03.243Z,14.55
2022-10-05T08:48:03.334Z,14.59
2022-10-05T08:49:03.384Z,14.61
2022-10-05T08:50:03.242Z,14.63
2022-10-05T08:51:03.227Z,14.67
2022-10-05T08:52:03.266Z,14.66
2022-10-05T08:53:03.368Z,14.71
2022-10-05T08:54:03.461Z,14.75
2022-10-05T08:55:03.560Z,14.79
2022-10-05T08:56:04.558Z,14.84
2022-10-05T08:57:02.673Z,14.88
2022-10-05T08:58:02.764Z,14.93
2022-10-05T08:59:02.835Z,14.98
2022-10-05T09:00:02.889Z,15.02
2022-10-05T09:01:02.997Z,15.07
2022-10-05T09:02:01.737Z,15.12
2022-10-05T09:03:02.044Z,15.15
2022-10-05T09:04:02.143Z,15.17
2022-10-05T09:05:02.229Z,15.20
2022-10-05T09:06:02.322Z,15.22
2022-10-05T09:07:02.171Z,15.24
2022-10-05T09:08:02.260Z,15.28
2022-10-05T09:09:02.312Z,15.29
2022-10-05T09:10:02.361Z,15.30
2022-10-05T09:11:02.404Z,15.33
2022-10-05T09:12:02.380Z,15.35
2022-10-05T09:13:02.611Z,15.36
2022-10-05T09:14:02.616Z,15.40
2022-10-05T09:15:24.169Z,15.45
2022-10-05T09:16:02.652Z,15.51
2022-10-05T09:17:02.097Z,15.56
2022-10-05T09:18:02.169Z,15.61
2022-10-05T09:19:02.192Z,15.62
2022-10-05T09:20:02.019Z,15.68
2022-10-05T09:21:01.995Z,15.68
2022-10-05T09:22:02.726Z,15.74
2022-10-05T09:23:02.963Z,15.80
2022-10-05T09:24:02.732Z,15.85
2022-10-05T09:25:02.641Z,15.86
2022-10-05T09:26:02.548Z,15.90
2022-10-05T09:27:02.976Z,15.93
2022-10-05T09:28:03.201Z,15.91
2022-10-05T09:29:02.938Z,15.98
2022-10-05T09:30:03.008Z,16.04
2022-10-05T09:31:03.148Z,16.10
2022-10-05T09:32:02.553Z,16.17
2022-10-05T09:33:02.566Z,16.20
2022-10-05T09:34:02.494Z,16.28
2022-10-05T09:35:02.604Z,16.34
2022-10-05T09:36:02.834Z,16.36
2022-10-05T09:37:02.626Z,16.35
2022-10-05T09:38:02.617Z,16.40
2022-10-05T09:39:02.615Z,16.47
2022-10-05T09:40:02.534Z,16.54
2022-10-05T09:41:02.501Z,16.60
2022-10-05T09:42:03.050Z,16.68
2022-10-05T09:43:03.133Z,16.75
2022-10-05T09:44:03.226Z,16.83
2022-10-05T09:45:03.184Z,16.91
2022-10-05T09:46:03.220Z,16.98
2022-10-05T09:47:02.798Z,17.05
2022-10-05T09:48:02.371Z,17.11
2022-10-05T09:49:02.417Z,17.18
2022-10-05T09:50:02.463Z,17.24
2022-10-05T09:51:02.343Z,17.30
2022-10-05T09:52:02.366Z,17.38
2022-10-05T09:53:02.401Z,17.44
2022-10-05T09:54:02.490Z,17.51
2022-10-05T09:55:02.189Z,17.56
2022-10-05T09:56:01.841Z,17.61
2022-10-05T09:57:02.587Z,17.69
2022-10-05T09:58:02.610Z,17.75
2022-10-05T09:59:02.655Z,17.82
2022-10-05T10:00:02.720Z,17.88
2022-10-05T10:01:09.662Z,17.95
2022-10-05T10:02:02.940Z,18.01
2022-10-05T10:03:03.140Z,18.10
2022-10-05T10:04:03.005Z,18.14
2022-10-05T10:05:02.896Z,18.15
2022-10-05T10:06:02.908Z,18.20
2022-10-05T10:07:02.612Z,18.21
2022-10-05T10:08:02.644Z,18.25
2022-10-05T10:09:02.339Z,18.27
2022-10-05T10:10:02.377Z,18.30
2022-10-05T10:11:02.337Z,18.32
2022-10-05T10:12:02.189Z,18.37
2022-10-05T10:13:01.975Z,18.43
2022-10-05T10:14:01.817Z,18.49
2022-10-05T10:15:03.148Z,18.55
2022-10-05T10:16:02.151Z,18.59
2022-10-05T10:17:02.623Z,18.66
2022-10-05T10:18:02.388Z,18.65
2022-10-05T10:19:02.384Z,18.72
2022-10-05T10:20:02.302Z,18.77
2022-10-05T10:21:02.558Z,18.84
2022-10-05T10:22:01.538Z,18.89
2022-10-05T10:23:01.581Z,18.96
2022-10-05T10:24:02.271Z,19.02
2022-10-05T10:25:02.014Z,19.09
2022-10-05T10:26:02.024Z,19.15
2022-10-05T10:27:01.606Z,19.21
2022-10-05T10:28:01.742Z,19.26
2022-10-05T10:29:01.920Z,19.31
2022-10-05T10:30:01.987Z,19.36
2022-10-05T10:31:01.910Z,19.42
2022-10-05T10:32:01.920Z,19.48
2022-10-05T10:33:02.602Z,19.52
2022-10-05T10:34:02.237Z,19.58
2022-10-05T10:35:02.426Z,19.61
2022-10-05T10:36:06.025Z,19.66
2022-10-05T10:37:02.259Z,19.73
2022-10-05T10:38:02.857Z,19.78
2022-10-05T10:39:02.488Z,19.85
2022-10-05T10:40:02.528Z,19.93
2022-10-05T10:41:02.477Z,20.00
2022-10-05T10:42:02.572Z,20.07
2022-10-05T10:43:03.255Z,20.16
2022-10-05T10:44:02.976Z,20.23
2022-10-05T10:45:03.021Z,20.29
2022-10-05T10:46:03.067Z,20.33
2022-10-05T10:47:03.154Z,20.35
2022-10-05T10:48:02.746Z,20.35
2022-10-05T10:49:02.511Z,20.35
2022-10-05T10:50:02.552Z,20.40
2022-10-05T10:51:02.580Z,20.45
2022-10-05T10:52:02.511Z,20.50
2022-10-05T10:53:02.311Z,20.55
2022-10-05T10:54:01.955Z,20.60
2022-10-05T10:55:01.712Z,20.62
2022-10-05T10:56:01.920Z,20.62
2022-10-05T10:57:01.792Z,20.67
2022-10-05T10:58:02.541Z,20.68
2022-10-05T10:59:02.609Z,20.74
2022-10-05T11:00:02.563Z,20.78
2022-10-05T11:01:02.694Z,20.81
2022-10-05T11:02:02.725Z,20.87
2022-10-05T11:03:02.667Z,20.92
2022-10-05T11:04:02.803Z,20.95
2022-10-05T11:05:02.658Z,20.98
2022-10-05T11:06:02.530Z,21.04
2022-10-05T11:07:02.538Z,21.05
2022-10-05T11:08:03.440Z,21.11
2022-10-05T11:09:02.911Z,21.16
2022-10-05T11:10:02.926Z,21.19
2022-10-05T11:11:03.504Z,21.24
2022-10-05T11:12:03.555Z,21.30
2022-10-05T11:13:03.328Z,21.36
2022-10-05T11:14:03.566Z,21.42
2022-10-05T11:15:03.545Z,21.46
2022-10-05T11:16:03.697Z,21.48
2022-10-05T11:17:03.552Z,21.53
2022-10-05T11:18:03.559Z,21.54
2022-10-05T11:19:03.599Z,21.52
2022-10-05T11:20:04.684Z,21.54
2022-10-05T11:21:03.449Z,21.59
2022-10-05T11:22:03.454Z,21.61
2022-10-05T11:23:03.098Z,21.63
2022-10-05T11:24:03.127Z,21.66
2022-10-05T11:25:03.167Z,21.69
2022-10-05T11:26:03.046Z,21.71
2022-10-05T11:27:02.935Z,21.72
2022-10-05T11:28:03.809Z,21.74
2022-10-05T11:29:03.555Z,21.77
2022-10-05T11:30:03.444Z,21.83
2022-10-05T11:31:03.531Z,21.89
2022-10-05T11:32:03.377Z,21.96
2022-10-05T11:33:02.777Z,21.99
2022-10-05T11:34:03.184Z,21.98
2022-10-05T11:35:03.194Z,21.95
2022-10-05T11:36:03.290Z,21.97
2022-10-05T11:37:03.302Z,21.99
2022-10-05T11:38:03.415Z,22.04
2022-10-05T11:39:03.461Z,22.07
2022-10-05T11:40:03.468Z,22.09
2022-10-05T11:41:03.791Z,22.10
2022-10-05T11:42:03.788Z,22.12
2022-10-05T11:43:03.725Z,22.08
2022-10-05T11:44:06.320Z,22.09
2022-10-05T11:45:03.903Z,22.11
2022-10-05T11:46:03.804Z,22.13
2022-10-05T11:47:03.847Z,22.15
2022-10-05T11:48:03.491Z,22.15
2022-10-05T11:49:03.594Z,22.16
2022-10-05T11:50:03.608Z,22.13
2022-10-05T11:51:03.582Z,22.16
2022-10-05T11:52:03.459Z,22.16
2022-10-05T11:53:03.148Z,22.18
2022-10-05T11:54:03.139Z,22.16
2022-10-05T11:55:10.850Z,22.16
2022-10-05T11:56:03.073Z,22.17
2022-10-05T11:57:03.093Z,22.18
2022-10-05T11:58:03.762Z,22.16
2022-10-05T11:59:03.774Z,22.16
2022-10-05T12:00:03.762Z,22.16
2022-10-05T12:01:03.792Z,22.20
2022-10-05T12:02:03.667Z,22.17
2022-10-05T12:03:02.508Z,22.18
2022-10-05T12:04:02.561Z,22.20
2022-10-05T12:05:02.293Z,22.23
2022-10-05T12:06:02.273Z,22.27
2022-10-05T12:07:02.318Z,22.31
2022-10-05T12:08:03.073Z,22.36
2022-10-05T12:09:02.865Z,22.42
2022-10-05T12:10:02.803Z,22.47
2022-10-05T12:11:02.833Z,22.53
2022-10-05T12:12:02.829Z,22.50
2022-10-05T12:13:02.482Z,22.53
2022-10-05T12:14:02.534Z,22.53
2022-10-05T12:15:02.086Z,22.54
2022-10-05T12:16:02.648Z,22.58
2022-10-05T12:17:01.948Z,22.60
2022-10-05T12:18:02.662Z,22.64
2022-10-05T12:19:02.303Z,22.68
2022-10-05T12:20:02.331Z,22.75
2022-10-05T12:21:02.613Z,22.82
2022-10-05T12:22:02.387Z,22.89
2022-10-05T12:23:02.483Z,22.97
2022-10-05T12:24:03.110Z,23.05
2022-10-05T12:25:02.804Z,23.14
2022-10-05T12:26:02.692Z,23.20
2022-10-05T12:27:02.638Z,23.27
2022-10-05T12:28:02.404Z,23.32
2022-10-05T12:29:02.133Z,23.40
2022-10-05T12:30:02.277Z,23.49
2022-10-05T12:31:02.112Z,23.56
2022-10-05T12:32:01.984Z,23.60
2022-10-05T12:33:02.517Z,23.66
2022-10-05T12:34:02.321Z,23.68
2022-10-05T12:35:02.385Z,23.72
2022-10-05T12:36:02.514Z,23.72
2022-10-05T12:37:04.813Z,23.69
2022-10-05T12:38:03.140Z,23.69
2022-10-05T12:39:02.844Z,23.71
2022-10-05T12:40:02.740Z,23.70
2022-10-05T12:41:02.756Z,23.67
2022-10-05T12:42:02.680Z,23.69
2022-10-05T12:43:01.783Z,23.66
2022-10-05T12:44:02.150Z,23.63
2022-10-05T12:45:01.833Z,23.63
2022-10-05T12:46:02.095Z,23.59
2022-10-05T12:47:02.340Z,23.58
2022-10-05T12:48:02.055Z,23.56
2022-10-05T12:49:02.642Z,23.52
2022-10-05T12:50:02.592Z,23.52
2022-10-05T12:51:02.719Z,23.52
2022-10-05T12:52:02.319Z,23.52
2022-10-05T12:53:02.834Z,23.57
2022-10-05T12:54:02.518Z,23.61
2022-10-05T12:55:02.736Z,23.67
2022-10-05T12:56:02.657Z,23.69
2022-10-05T12:57:02.697Z,23.70
2022-10-05T12:58:02.735Z,23.72
2022-10-05T12:59:03.283Z,23.73
2022-10-05T13:00:02.945Z,23.77
2022-10-05T13:01:03.035Z,23.78
2022-10-05T13:02:03.095Z,23.77
2022-10-05T13:03:02.159Z,23.76